createdAt,value
2022-09-15T00:00:12.628Z,1.60
2022-09-15T00:03:14.767Z,1.60
2022-09-15T00:06:17.748Z,1.88
2022-09-15T00:09:20.012Z,1.80
2022-09-15T00:12:22.817Z,1.80
2022-09-15T00:15:25.133Z,1.90
2022-09-15T00:18:27.591Z,1.73
2022-09-15T00:21:32.804Z,1.80
2022-09-15T00:24:35.979Z,1.90
2022-09-15T00:27:38.532Z,2.10
2022-09-15T00:30:43.148Z,1.88
2022-09-15T00:33:50.814Z,1.52
2022-09-15T00:36:53.124Z,2.10
2022-09-15T00:39:55.452Z,2.00
2022-09-15T00:42:57.442Z,1.70
2022-09-15T00:45:59.793Z,2.00
2022-09-15T00:49:17.117Z,1.90
2022-09-15T00:52:25.506Z,2.20
2022-09-15T00:55:27.954Z,1.80
2022-09-15T00:58:46.740Z,2.15
2022-09-15T01:01:55.423Z,2.13
2022-09-15T01:04:59.075Z,2.47
2022-09-15T01:08:07.363Z,2.50
2022-09-15T01:11:09.724Z,2.50
2022-09-15T01:14:12.893Z,2.13
2022-09-15T01:17:24.195Z,2.17
2022-09-15T01:21:12.581Z,2.80
2022-09-15T01:24:23.697Z,2.55
2022-09-15T01:28:03.620Z,2.37
2022-09-15T01:31:20.599Z,2.55
2022-09-15T01:34:24.183Z,2.63
2022-09-15T01:37:33.015Z,2.33
2022-09-15T01:40:40.838Z,2.60
2022-09-15T01:44:06.852Z,2.60
2022-09-15T01:47:11.692Z,2.72
2022-09-15T01:50:20.980Z,2.47
2022-09-15T01:53:24.128Z,2.38
2022-09-15T01:56:26.680Z,2.70
2022-09-15T01:59:29.921Z,2.70
2022-09-15T02:02:47.148Z,3.08
2022-09-15T02:06:02.015Z,2.72
2022-09-15T02:09:21.191Z,2.60
2022-09-15T02:12:34.301Z,2.60
2022-09-15T02:15:48.413Z,2.37
2022-09-15T02:19:11.154Z,2.53
2022-09-15T02:22:34.677Z,2.78
2022-09-15T02:25:51.640Z,2.58
2022-09-15T02:28:56.250Z,2.67
2022-09-15T02:32:03.688Z,2.60
2022-09-15T02:35:10.015Z,2.75
2022-09-15T02:38:13.159Z,2.83
2022-09-15T02:41:15.582Z,2.85
2022-09-15T02:44:17.600Z,2.70
2022-09-15T02:47:19.979Z,2.87
2022-09-15T02:50:22.564Z,2.78
2022-09-15T02:53:24.711Z,2.65
2022-09-15T02:56:27.060Z,2.95
2022-09-15T02:59:52.471Z,3.72
2022-09-15T03:02:56.142Z,4.43
2022-09-15T03:06:17.352Z,3.40
2022-09-15T03:09:19.658Z,3.75
2022-09-15T03:12:23.123Z,3.75
2022-09-15T03:15:26.649Z,3.20
2022-09-15T03:18:28.855Z,3.10
2022-09-15T03:21:31.619Z,2.78
2022-09-15T03:24:33.773Z,3.10
2022-09-15T03:27:36.886Z,3.50
2022-09-15T03:30:39.229Z,3.35
2022-09-15T03:33:41.630Z,3.40
2022-09-15T03:36:43.887Z,3.28
2022-09-15T03:39:47.566Z,3.00
2022-09-15T03:42:49.838Z,2.42
2022-09-15T03:45:52.107Z,2.83
2022-09-15T03:48:54.535Z,2.40
2022-09-15T03:51:58.749Z,2.78
2022-09-15T03:55:01.038Z,2.35
2022-09-15T03:58:03.687Z,1.60
2022-09-15T04:01:06.025Z,1.30
2022-09-15T04:04:08.372Z,1.10
2022-09-15T04:07:11.004Z,1.25
2022-09-15T04:10:13.375Z,1.05
2022-09-15T04:13:15.719Z,0.75
2022-09-15T04:16:19.839Z,0.60
2022-09-15T04:19:22.373Z,0.40
2022-09-15T04:22:25.027Z,0.20
2022-09-15T04:25:27.920Z,0.35
2022-09-15T04:28:33.973Z,0.20
2022-09-15T04:31:36.310Z,0.20
2022-09-15T04:34:41.363Z,0.67
2022-09-15T04:37:43.771Z,0.10
2022-09-15T04:40:46.378Z,0.20
2022-09-15T04:43:54.980Z,0.30
2022-09-15T04:46:57.618Z,0.20
2022-09-15T04:49:59.992Z,0.10
2022-09-15T04:53:02.158Z,0.10
2022-09-15T04:56:05.863Z,0.38
2022-09-15T04:59:14.438Z,0.10
2022-09-15T05:02:16.778Z,0.10
2022-09-15T05:05:19.543Z,0.20
2022-09-15T05:08:22.280Z,0.10
2022-09-15T05:11:26.204Z,0.25
2022-09-15T05:14:28.662Z,0.10
2022-09-15T05:17:32.627Z,0.32
2022-09-15T05:20:35.108Z,0.10
2022-09-15T05:23:37.812Z,0.10
2022-09-15T05:26:40.277Z,0.10
2022-09-15T05:29:42.692Z,0.10
2022-09-15T05:32:45.090Z,0.65
2022-09-15T05:35:58.018Z,0.37
2022-09-15T05:39:01.754Z,0.20
2022-09-15T05:42:04.402Z,0.10
2022-09-15T05:45:07.606Z,0.30
2022-09-15T05:48:12.821Z,0.20
2022-09-15T05:51:15.396Z,0.10
2022-09-15T05:54:17.700Z,0.20
2022-09-15T05:57:20.129Z,0.20
2022-09-15T06:00:22.365Z,0.40
2022-09-15T06:03:30.044Z,0.20
2022-09-15T06:06:33.290Z,0.10
2022-09-15T06:09:35.600Z,0.10
2022-09-15T06:12:37.856Z,0.40
2022-09-15T06:15:39.876Z,0.10
2022-09-15T06:18:43.468Z,0.20
2022-09-15T06:21:45.827Z,0.10
2022-09-15T06:24:48.330Z,0.15
2022-09-15T06:27:50.920Z,0.20
2022-09-15T06:30:53.364Z,0.10
2022-09-15T06:33:57.724Z,0.17
2022-09-15T06:37:00.013Z,0.20
2022-09-15T06:40:03.636Z,0.20
2022-09-15T06:43:06.174Z,0.20
2022-09-15T06:46:11.179Z,0.10
2022-09-15T06:49:14.087Z,0.20
2022-09-15T06:52:16.362Z,0.20
2022-09-15T06:55:18.344Z,0.20
2022-09-15T06:58:20.603Z,0.20
2022-09-15T07:01:25.807Z,0.20
2022-09-15T07:04:28.085Z,0.10
2022-09-15T07:07:30.367Z,0.20
2022-09-15T07:10:33.078Z,0.20
2022-09-15T07:13:35.415Z,0.20
2022-09-15T07:16:37.901Z,0.10
2022-09-15T07:19:41.530Z,0.20
2022-09-15T07:22:47.635Z,0.20
2022-09-15T07:25:49.692Z,0.20
2022-09-15T07:28:56.043Z,0.22
2022-09-15T07:31:58.566Z,0.38
2022-09-15T07:35:02.315Z,0.40
2022-09-15T07:38:04.665Z,0.20
2022-09-15T07:41:09.892Z,0.20
2022-09-15T07:44:13.248Z,0.20
2022-09-15T07:47:15.596Z,0.20
2022-09-15T07:50:19.372Z,0.20
2022-09-15T07:53:22.230Z,0.40
2022-09-15T07:56:24.944Z,0.40
2022-09-15T07:59:27.462Z,0.20
2022-09-15T08:02:29.599Z,0.20
2022-09-15T08:05:37.340Z,0.32
2022-09-15T08:08:44.055Z,0.23
2022-09-15T08:11:46.468Z,0.30
2022-09-15T08:14:48.981Z,0.20
2022-09-15T08:17:51.503Z,0.30
2022-09-15T08:20:53.743Z,0.20
2022-09-15T08:24:00.628Z,0.20
2022-09-15T08:27:02.855Z,0.10
2022-09-15T08:30:06.966Z,0.32
2022-09-15T08:33:09.534Z,0.30
2022-09-15T08:36:12.070Z,0.30
2022-09-15T08:39:14.410Z,0.20
2022-09-15T08:42:19.529Z,0.32
2022-09-15T08:45:26.287Z,0.30
2022-09-15T08:48:36.286Z,0.20
2022-09-15T08:51:48.096Z,0.20
2022-09-15T08:54:53.618Z,0.23
2022-09-15T08:57:56.030Z,0.20
2022-09-15T09:01:04.348Z,0.20
2022-09-15T09:04:21.956Z,0.20
2022-09-15T09:07:37.876Z,0.28
2022-09-15T09:10:55.933Z,0.20
2022-09-15T09:14:23.319Z,0.10
2022-09-15T09:17:41.609Z,0.20
2022-09-15T09:20:55.520Z,0.30
2022-09-15T09:24:03.396Z,0.30
2022-09-15T09:27:13.035Z,0.20
2022-09-15T09:30:19.779Z,0.43
2022-09-15T09:33:50.938Z,0.22
2022-09-15T09:36:57.491Z,0.40
2022-09-15T09:40:00.689Z,0.20
2022-09-15T09:43:02.997Z,0.20
2022-09-15T09:46:23.477Z,0.20
2022-09-15T09:49:30.031Z,0.30
2022-09-15T09:52:39.572Z,0.30
2022-09-15T09:55:42.036Z,0.20
2022-09-15T09:58:44.917Z,0.30
2022-09-15T10:02:11.071Z,0.22
2022-09-15T10:05:20.500Z,0.40
2022-09-15T10:08:23.216Z,0.20
2022-09-15T10:11:44.015Z,0.40
2022-09-15T10:14:52.654Z,0.33
2022-09-15T10:17:56.373Z,0.20
2022-09-15T10:20:59.901Z,0.30
2022-09-15T10:24:33.368Z,0.22
2022-09-15T10:27:36.859Z,0.30
2022-09-15T10:30:55.611Z,0.20
2022-09-15T10:33:57.876Z,0.20
2022-09-15T10:37:27.096Z,0.25
2022-09-15T10:40:48.114Z,0.30
2022-09-15T10:43:56.339Z,0.28
2022-09-15T10:47:24.488Z,0.20
2022-09-15T10:50:30.627Z,0.20
2022-09-15T10:53:48.940Z,0.40
2022-09-15T10:56:58.153Z,0.30
2022-09-15T11:00:05.003Z,0.32
2022-09-15T11:03:21.564Z,0.30
2022-09-15T11:06:35.752Z,0.30
2022-09-15T11:09:59.828Z,0.30
2022-09-15T11:13:20.408Z,0.30
2022-09-15T11:16:56.149Z,0.30
2022-09-15T11:20:33.735Z,0.30
2022-09-15T11:24:01.957Z,0.20
2022-09-15T11:27:07.390Z,0.30
2022-09-15T11:30:23.327Z,0.30
2022-09-15T11:33:47.958Z,0.38
2022-09-15T11:37:13.060Z,0.43
2022-09-15T11:40:22.186Z,0.20
2022-09-15T11:43:36.950Z,0.20
2022-09-15T11:46:59.679Z,0.20
2022-09-15T11:50:11.161Z,0.30
2022-09-15T11:53:43.884Z,0.20
2022-09-15T11:56:47.598Z,0.20
2022-09-15T12:00:14.622Z,0.30
2022-09-15T12:03:35.902Z,0.30
2022-09-15T12:07:12.297Z,0.30
2022-09-15T12:10:33.948Z,0.20
2022-09-15T12:13:36.929Z,0.30
2022-09-15T12:16:39.414Z,0.30
2022-09-15T12:20:06.030Z,0.40
2022-09-15T12:23:29.236Z,0.35
2022-09-15T12:26:33.675Z,0.30
2022-09-15T12:29:42.024Z,0.30
2022-09-15T12:32:44.861Z,0.20
2022-09-15T12:35:47.544Z,0.20
2022-09-15T12:38:49.844Z,0.30
2022-09-15T12:42:14.930Z,0.20
2022-09-15T12:45:25.302Z,0.40
2022-09-15T12:48:36.502Z,0.40
2022-09-15T12:51:38.834Z,0.20
2022-09-15T12:54:43.413Z,0.40
2022-09-15T12:57:52.035Z,0.20
2022-09-15T13:01:24.556Z,0.20
2022-09-15T13:04:42.114Z,0.32
2022-09-15T13:07:56.906Z,0.20
2022-09-15T13:11:09.754Z,0.30
2022-09-15T13:14:32.935Z,0.27
2022-09-15T13:17:35.351Z,0.40
2022-09-15T13:20:41.260Z,0.30
2022-09-15T13:23:48.279Z,0.30
2022-09-15T13:26:55.691Z,0.30
2022-09-15T13:30:03.830Z,0.20
2022-09-15T13:41:10.766Z,0.20
2022-09-15T13:44:35.244Z,0.43
2022-09-15T13:47:56.100Z,0.20
2022-09-15T13:51:02.023Z,0.20
2022-09-15T13:54:15.324Z,0.30
2022-09-15T13:57:17.874Z,0.17
2022-09-15T14:00:23.320Z,0.20
2022-09-15T14:04:17.913Z,0.20
2022-09-15T14:07:24.580Z,0.30
2022-09-15T14:10:30.308Z,0.20
2022-09-15T14:13:32.719Z,0.10
2022-09-15T14:16:39.248Z,0.20
2022-09-15T14:19:42.733Z,0.10
2022-09-15T14:22:49.812Z,0.10
2022-09-15T14:25:51.957Z,0.20
2022-09-15T14:28:58.522Z,0.20
2022-09-15T14:32:01.916Z,0.20
2022-09-15T14:35:07.592Z,0.10
2022-09-15T14:38:21.601Z,0.10
2022-09-15T14:41:23.772Z,0.20
2022-09-15T14:47:48.119Z,0.15
2022-09-15T14:51:01.962Z,0.10
2022-09-15T14:54:05.947Z,0.15
2022-09-15T14:57:10.335Z,0.20
2022-09-15T15:00:19.068Z,0.25
2022-09-15T15:03:42.327Z,0.10
2022-09-15T15:07:15.278Z,0.20
2022-09-15T15:10:25.850Z,0.15
2022-09-15T15:13:28.530Z,0.10
2022-09-15T15:16:31.512Z,0.30
2022-09-15T15:19:38.282Z,0.10
2022-09-15T15:22:43.271Z,0.20
2022-09-15T15:25:47.048Z,0.20
2022-09-15T15:28:49.008Z,0.20
2022-09-15T15:31:51.087Z,0.10
2022-09-15T15:35:01.253Z,0.85
2022-09-15T15:38:11.128Z,0.20
2022-09-15T15:41:23.887Z,0.15
2022-09-15T15:44:27.875Z,0.15
2022-09-15T15:47:36.391Z,0.20
2022-09-15T15:50:38.504Z,0.43
2022-09-15T15:53:41.012Z,0.10
2022-09-15T15:56:42.959Z,0.20
2022-09-15T15:59:46.796Z,0.10
2022-09-15T16:02:50.474Z,0.20
2022-09-15T16:05:54.634Z,0.20
2022-09-15T16:09:00.851Z,0.20
2022-09-15T16:12:02.877Z,0.20
2022-09-15T16:15:12.556Z,0.20
2022-09-15T16:18:14.775Z,0.10
2022-09-15T16:21:36.966Z,0.20
2022-09-15T16:24:38.963Z,0.20
2022-09-15T16:27:41.051Z,0.20
2022-09-15T16:30:44.261Z,0.15
2022-09-15T16:33:46.259Z,0.30
2022-09-15T16:36:48.219Z,0.20
2022-09-15T16:39:52.516Z,0.20
2022-09-15T16:42:54.866Z,0.20
2022-09-15T16:45:56.817Z,0.20
2022-09-15T16:48:58.882Z,0.20
2022-09-15T16:52:01.041Z,0.38
2022-09-15T16:55:29.628Z,0.20
2022-09-15T16:58:31.755Z,0.10
2022-09-15T17:01:33.777Z,0.10
2022-09-15T17:04:35.716Z,0.20
2022-09-15T17:07:37.699Z,0.35
2022-09-15T17:10:41.197Z,0.10
2022-09-15T17:13:48.480Z,0.20
2022-09-15T17:16:52.864Z,0.20
2022-09-15T17:19:54.894Z,0.10
2022-09-15T17:22:57.885Z,0.10
2022-09-15T17:26:02.260Z,0.20
2022-09-15T17:29:04.285Z,0.20
2022-09-15T17:32:06.247Z,0.15
2022-09-15T17:35:24.968Z,0.20
2022-09-15T17:38:27.539Z,0.20
2022-09-15T17:41:31.024Z,0.20
2022-09-15T17:44:35.619Z,0.25
2022-09-15T17:47:39.652Z,0.30
2022-09-15T17:50:42.405Z,0.10
2022-09-15T17:53:46.779Z,0.10
2022-09-15T17:56:48.877Z,0.10
2022-09-15T17:59:50.833Z,0.10
2022-09-15T18:02:59.312Z,0.20
2022-09-15T18:06:05.254Z,0.20
2022-09-15T18:09:07.493Z,0.15
2022-09-15T18:12:12.799Z,0.10
2022-09-15T18:15:18.748Z,0.10
2022-09-15T18:18:23.977Z,0.13
2022-09-15T18:21:28.889Z,0.10
2022-09-15T18:24:31.018Z,0.10
2022-09-15T18:27:33.057Z,0.20
2022-09-15T18:30:40.752Z,0.32
2022-09-15T18:33:42.848Z,0.20
2022-09-15T18:36:44.861Z,0.40
2022-09-15T18:39:46.950Z,0.13
2022-09-15T18:42:49.204Z,0.10
2022-09-15T18:45:51.444Z,0.20
2022-09-15T18:48:53.574Z,0.10
2022-09-15T18:51:55.621Z,0.40
2022-09-15T18:54:59.640Z,0.20
2022-09-15T18:58:01.786Z,0.13
2022-09-15T19:01:04.342Z,0.20
2022-09-15T19:04:06.506Z,0.52
2022-09-15T19:07:10.665Z,0.20
2022-09-15T19:10:14.518Z,0.10
2022-09-15T19:13:17.021Z,0.10
2022-09-15T19:16:22.739Z,0.10
2022-09-15T19:19:25.347Z,0.20
2022-09-15T19:22:28.760Z,0.20
2022-09-15T19:25:31.027Z,0.10
2022-09-15T19:28:33.425Z,0.30
2022-09-15T19:31:41.669Z,0.10
2022-09-15T19:34:45.357Z,0.20
2022-09-15T19:37:47.535Z,0.10
2022-09-15T19:40:50.757Z,0.15
2022-09-15T19:43:53.750Z,0.10
2022-09-15T19:46:59.253Z,0.10
2022-09-15T19:50:01.698Z,0.30
2022-09-15T19:53:04.026Z,0.30
2022-09-15T19:56:06.541Z,0.28
2022-09-15T19:59:08.629Z,0.20
2022-09-15T20:02:11.793Z,0.30
2022-09-15T20:05:13.725Z,0.28
2022-09-15T20:08:15.767Z,0.10
2022-09-15T20:11:18.480Z,0.20
2022-09-15T20:14:20.459Z,0.20
2022-09-15T20:17:22.459Z,0.10
2022-09-15T20:20:25.043Z,0.10
2022-09-15T20:23:26.944Z,0.40
2022-09-15T20:26:30.165Z,0.10
2022-09-15T20:29:32.119Z,0.40
2022-09-15T20:32:34.536Z,0.10
2022-09-15T20:35:36.901Z,0.10
2022-09-15T20:38:40.187Z,0.20
2022-09-15T20:41:46.178Z,0.10
2022-09-15T20:44:48.307Z,0.60
2022-09-15T20:47:50.286Z,0.17
2022-09-15T20:51:00.307Z,0.10
2022-09-15T20:54:04.284Z,0.40
2022-09-15T20:57:06.778Z,0.10
2022-09-15T21:00:10.369Z,0.10
2022-09-15T21:03:12.604Z,0.20
2022-09-15T21:06:22.790Z,0.10
2022-09-15T21:09:24.884Z,0.40
2022-09-15T21:12:26.854Z,0.10
2022-09-15T21:15:28.848Z,0.20
2022-09-15T21:18:34.827Z,0.20
2022-09-15T21:21:36.872Z,0.10
2022-09-15T21:24:38.825Z,0.10
2022-09-15T21:27:40.755Z,0.10
2022-09-15T21:30:43.087Z,0.13
2022-09-15T21:33:46.414Z,0.20
2022-09-15T21:36:48.321Z,0.30
2022-09-15T21:39:50.368Z,0.20
2022-09-15T21:42:52.327Z,0.20
2022-09-15T21:46:04.778Z,0.30
2022-09-15T21:49:06.822Z,0.10
2022-09-15T21:52:08.889Z,0.20
2022-09-15T21:55:10.785Z,0.10
2022-09-15T21:58:12.810Z,0.68
2022-09-15T22:01:23.478Z,0.10
2022-09-15T22:04:25.733Z,0.20
2022-09-15T22:07:27.662Z,0.30
2022-09-15T22:10:31.504Z,0.10
2022-09-15T22:13:36.419Z,0.30
2022-09-15T22:16:39.566Z,0.10
2022-09-15T22:19:41.867Z,0.10
2022-09-15T22:22:44.356Z,0.10
2022-09-15T22:25:46.326Z,0.10
2022-09-15T22:28:48.844Z,0.30
2022-09-15T22:31:50.867Z,0.10
2022-09-15T22:34:53.131Z,0.10
2022-09-15T22:37:55.091Z,0.10
2022-09-15T22:41:03.390Z,0.10
2022-09-15T22:44:06.563Z,0.32
2022-09-15T22:47:09.522Z,0.20
2022-09-15T22:50:12.023Z,0.10
2022-09-15T22:53:14.744Z,0.10
2022-09-15T22:56:20.844Z,0.20
2022-09-15T22:59:22.861Z,0.50
2022-09-15T23:02:25.101Z,0.10
2022-09-15T23:05:27.251Z,0.32
2022-09-15T23:08:30.306Z,0.10
2022-09-15T23:11:33.327Z,0.15
2022-09-15T23:14:35.325Z,0.20
2022-09-15T23:17:37.201Z,0.20
2022-09-15T23:20:39.791Z,0.20
2022-09-15T23:23:44.284Z,0.63
2022-09-15T23:26:46.276Z,0.40
2022-09-15T23:29:48.130Z,0.13
2022-09-15T23:32:50.101Z,0.17
2022-09-15T23:35:52.217Z,0.13
2022-09-15T23:38:54.363Z,0.30
2022-09-15T23:41:56.572Z,0.20
2022-09-15T23:44:58.473Z,0.10
2022-09-15T23:48:00.426Z,0.10
2022-09-15T23:51:02.595Z,0.10
2022-09-15T23:54:04.892Z,0.10
2022-09-15T23:57:08.847Z,0.20
